Pyrites, New York
Current Conditions -  °F | °C
As of 10:53 AM on Wednesday 26 Nov 2014 (Local Time) from KMSS Reporting Station
Clear Clear  
Wind Chill: -1°   Ceiling: Unl
Heat Index: -1°   Visibility: 10mi
Dew Point: -7°   Wind: 0mph
Humidity: 61%   Direction: NA
Pressure: 30.24"   Gusts: NA
Location:  44.51°N, 75.19°W
Report Text: KMSS 261553Z AUTO 00000KT 10SM CLR M01/M07 A3024 RMK AO2 SLP245 T10061072
Loading
Personal Weather Stations






























Interactive Weather Map New forecast layout! Learn more

10-Day Weather Forecast

Advertisements
Track Severe Weather on mobile